createdAt,value
2022-08-31T00:00:31.426Z,94766.59
2022-08-31T00:03:17.377Z,94764.84
2022-08-31T00:05:44.697Z,94750.69
2022-08-31T00:08:11.598Z,94755.63
2022-08-31T00:10:41.371Z,94747.59
2022-08-31T00:13:10.154Z,94743.72
2022-08-31T00:15:37.036Z,94735.16
2022-08-31T00:18:04.793Z,94733.34
2022-08-31T00:20:33.822Z,94736.94
2022-08-31T00:23:07.237Z,94745.31
2022-08-31T00:25:35.712Z,94728.03
2022-08-31T00:28:03.515Z,94721.66
2022-08-31T00:30:31.510Z,94757.19
2022-08-31T00:32:58.811Z,94712.53
2022-08-31T00:35:28.046Z,94696.28
2022-08-31T00:37:55.378Z,94752.22
2022-08-31T00:40:22.399Z,94729.06
2022-08-31T00:42:49.465Z,94716.94
2022-08-31T00:45:16.410Z,94728.91
2022-08-31T00:47:43.178Z,94726.06
2022-08-31T00:50:14.577Z,94703.56
2022-08-31T00:52:46.590Z,94731.72
2022-08-31T00:55:18.022Z,94741.38
2022-08-31T00:57:48.025Z,94771.59
2022-08-31T01:00:19.619Z,94754.53
2022-08-31T01:02:47.619Z,94718.47
2022-08-31T01:05:15.864Z,94741.97
2022-08-31T01:07:47.753Z,94723.00
2022-08-31T01:10:19.668Z,94746.84
2022-08-31T01:12:50.544Z,94743.94
2022-08-31T01:15:18.163Z,94752.91
2022-08-31T01:17:48.626Z,94756.53
2022-08-31T01:20:15.583Z,94749.81
2022-08-31T01:23:23.870Z,94733.16
2022-08-31T01:25:52.499Z,94721.31
2022-08-31T01:28:19.331Z,94736.03
2022-08-31T01:30:59.342Z,94744.84
2022-08-31T01:33:26.855Z,94733.09
2022-08-31T01:35:54.069Z,94737.28
2022-08-31T01:38:22.090Z,94768.50
2022-08-31T01:40:54.694Z,94740.84
2022-08-31T01:43:21.848Z,94742.94
2022-08-31T01:45:49.783Z,94761.38
2022-08-31T01:48:17.811Z,94748.59
2022-08-31T01:50:46.854Z,94741.81
2022-08-31T01:53:13.895Z,94741.78
2022-08-31T01:55:41.732Z,94740.09
2022-08-31T01:58:09.466Z,94739.59
2022-08-31T02:01:03.388Z,94741.41
2022-08-31T02:03:42.655Z,94731.06
2022-08-31T02:06:11.891Z,94724.66
2022-08-31T02:08:39.522Z,94737.19
2022-08-31T02:11:07.838Z,94735.66
2022-08-31T02:13:35.907Z,94726.09
2022-08-31T02:16:03.594Z,94714.28
2022-08-31T02:18:34.288Z,94740.19
2022-08-31T02:21:01.103Z,94740.88
2022-08-31T02:23:27.978Z,94740.09
2022-08-31T02:25:55.806Z,94729.06
2022-08-31T02:28:23.499Z,94730.25
2022-08-31T02:30:52.198Z,94729.72
2022-08-31T02:33:19.374Z,94727.25
2022-08-31T02:35:46.310Z,94722.88
2022-08-31T02:38:19.625Z,94730.63
2022-08-31T02:40:50.228Z,94720.53
2022-08-31T02:43:24.360Z,94722.38
2022-08-31T02:45:53.919Z,94727.88
2022-08-31T02:48:25.930Z,94729.47
2022-08-31T02:50:53.667Z,94731.28
2022-08-31T02:53:23.023Z,94715.41
2022-08-31T02:55:50.425Z,94726.56
2022-08-31T02:58:21.964Z,94732.56
2022-08-31T03:00:51.703Z,94712.91
2022-08-31T03:03:19.727Z,94734.06
2022-08-31T03:05:46.678Z,94728.91
2022-08-31T03:08:13.923Z,94723.50
2022-08-31T03:10:41.901Z,94703.63
2022-08-31T03:13:08.681Z,94728.03
2022-08-31T03:15:35.685Z,94713.09
2022-08-31T03:18:06.756Z,94730.72
2022-08-31T03:20:34.938Z,94731.28
2022-08-31T03:23:02.052Z,94728.25
2022-08-31T03:25:31.231Z,94740.44
2022-08-31T03:27:58.664Z,94730.44
2022-08-31T03:30:27.598Z,94743.44
2022-08-31T03:33:05.189Z,94741.31
2022-08-31T03:35:33.388Z,94713.03
2022-08-31T03:38:02.696Z,94736.38
2022-08-31T03:40:30.640Z,94734.28
2022-08-31T03:43:00.642Z,94743.16
2022-08-31T03:45:28.994Z,94755.09
2022-08-31T03:47:55.982Z,94752.44
2022-08-31T03:50:25.689Z,94758.16
2022-08-31T03:53:05.394Z,94763.63
2022-08-31T03:55:33.997Z,94759.03
2022-08-31T03:58:00.846Z,94748.22
2022-08-31T04:00:28.422Z,94749.13
2022-08-31T04:03:01.736Z,94768.81
2022-08-31T04:05:34.157Z,94732.47
2022-08-31T04:08:20.860Z,94733.25
2022-08-31T04:11:14.477Z,94751.88
2022-08-31T04:14:00.233Z,94741.28
2022-08-31T04:16:45.220Z,94763.13
2022-08-31T04:19:35.530Z,94769.09
2022-08-31T04:22:15.842Z,94743.72
2022-08-31T04:24:59.731Z,94766.75
2022-08-31T04:27:26.566Z,94766.00
2022-08-31T04:29:53.403Z,94766.47
2022-08-31T04:32:21.054Z,94761.78
2022-08-31T04:34:47.870Z,94770.44
2022-08-31T04:37:21.538Z,94777.41
2022-08-31T04:39:50.578Z,94777.41
2022-08-31T04:42:18.207Z,94763.53
2022-08-31T04:44:45.263Z,94760.25
2022-08-31T04:47:12.021Z,94766.78
2022-08-31T04:49:39.425Z,94766.81
2022-08-31T04:52:06.854Z,94777.50
2022-08-31T04:54:35.288Z,94772.00
2022-08-31T04:57:02.393Z,94766.97
2022-08-31T04:59:32.611Z,94777.53
2022-08-31T05:02:28.663Z,94777.69
2022-08-31T05:05:10.789Z,94766.88
2022-08-31T05:07:39.438Z,94775.03
2022-08-31T05:10:07.533Z,94767.78
2022-08-31T05:12:34.542Z,94774.09
2022-08-31T05:15:01.381Z,94760.25
2022-08-31T05:17:28.953Z,94760.03
2022-08-31T05:19:55.738Z,94778.78
2022-08-31T05:22:23.220Z,94772.34
2022-08-31T05:24:52.458Z,94769.34
2022-08-31T05:27:19.274Z,94773.16
2022-08-31T05:29:46.350Z,94773.22
2022-08-31T05:32:31.589Z,94793.31
2022-08-31T05:35:01.947Z,94794.97
2022-08-31T05:37:28.917Z,94777.31
2022-08-31T05:39:55.847Z,94777.41
2022-08-31T05:42:22.757Z,94783.78
2022-08-31T05:44:49.826Z,94775.28
2022-08-31T05:47:17.163Z,94784.53
2022-08-31T05:49:45.056Z,94790.56
2022-08-31T05:52:16.658Z,94788.16
2022-08-31T05:54:43.715Z,94774.09
2022-08-31T05:57:10.549Z,94776.75
2022-08-31T05:59:39.326Z,94783.13
2022-08-31T06:02:09.825Z,94800.59
2022-08-31T06:04:36.805Z,94803.22
2022-08-31T06:07:03.839Z,94806.19
2022-08-31T06:09:44.389Z,94791.34
2022-08-31T06:12:15.268Z,94786.63
2022-08-31T06:14:45.207Z,94808.59
2022-08-31T06:17:17.369Z,94817.31
2022-08-31T06:19:44.433Z,94810.09
2022-08-31T06:22:11.963Z,94809.31
2022-08-31T06:24:38.824Z,94804.47
2022-08-31T06:27:07.418Z,94813.91
2022-08-31T06:29:36.883Z,94812.66
2022-08-31T06:32:08.285Z,94807.22
2022-08-31T06:34:39.391Z,94811.34
2022-08-31T06:37:07.482Z,94811.94
2022-08-31T06:40:10.342Z,94813.06
2022-08-31T06:43:00.552Z,94813.47
2022-08-31T06:45:52.112Z,94799.91
2022-08-31T06:48:39.207Z,94814.50
2022-08-31T06:51:08.223Z,94824.66
2022-08-31T06:53:37.011Z,94809.69
2022-08-31T06:56:05.946Z,94809.91
2022-08-31T06:59:16.637Z,94819.75
2022-08-31T07:02:03.179Z,94798.50
2022-08-31T07:04:37.126Z,94799.69
2022-08-31T07:07:06.249Z,94790.16
2022-08-31T07:09:34.265Z,94799.81
2022-08-31T07:12:01.132Z,94812.50
2022-08-31T07:14:28.935Z,94799.97
2022-08-31T07:16:58.781Z,94792.41
2022-08-31T07:19:26.511Z,94814.31
2022-08-31T07:21:56.357Z,94819.19
2022-08-31T07:24:27.811Z,94828.81
2022-08-31T07:27:02.513Z,94811.75
2022-08-31T07:29:42.885Z,94811.72
2022-08-31T07:32:14.981Z,94808.81
2022-08-31T07:34:44.129Z,94780.78
2022-08-31T07:37:50.950Z,94781.53
2022-08-31T07:40:41.235Z,94842.03
2022-08-31T07:43:10.394Z,94836.47
2022-08-31T07:45:39.407Z,94847.78
2022-08-31T07:48:07.526Z,94828.34
2022-08-31T07:51:06.520Z,94811.53
2022-08-31T07:53:54.849Z,94822.19
2022-08-31T07:56:34.688Z,94842.41
2022-08-31T07:59:18.242Z,94841.81
2022-08-31T08:01:47.723Z,94857.41
2022-08-31T08:04:25.180Z,94855.78
2022-08-31T08:07:12.454Z,94861.09
2022-08-31T08:09:57.509Z,94860.28
2022-08-31T08:13:05.793Z,94856.84
2022-08-31T08:15:57.640Z,94840.72
2022-08-31T08:19:00.268Z,94857.53
2022-08-31T08:21:29.220Z,94861.16
2022-08-31T08:23:56.839Z,94858.91
2022-08-31T08:26:45.319Z,94863.81
2022-08-31T08:29:24.795Z,94862.91
2022-08-31T08:31:56.246Z,94851.00
2022-08-31T08:34:32.534Z,94854.47
2022-08-31T08:37:01.892Z,94853.28
2022-08-31T08:39:29.974Z,94838.81
2022-08-31T08:42:17.054Z,94856.72
2022-08-31T08:44:44.401Z,94848.03
2022-08-31T08:47:19.095Z,94866.06
2022-08-31T08:49:56.191Z,94861.56
2022-08-31T08:52:29.046Z,94861.16
2022-08-31T08:55:02.119Z,94849.47
2022-08-31T08:57:39.110Z,94867.50
2022-08-31T09:00:16.383Z,94866.59
2022-08-31T09:03:01.888Z,94852.91
2022-08-31T09:06:03.300Z,94867.16
2022-08-31T09:09:18.240Z,94883.22
2022-08-31T09:12:31.764Z,94864.78
2022-08-31T09:15:36.855Z,94875.06
2022-08-31T09:18:18.511Z,94870.66
2022-08-31T09:21:05.483Z,94867.66
2022-08-31T09:23:38.535Z,94877.16
2022-08-31T09:26:08.432Z,94879.59
2022-08-31T09:29:04.009Z,94882.44
2022-08-31T09:31:38.364Z,94870.59
2022-08-31T09:34:24.715Z,94884.84
2022-08-31T09:36:54.406Z,94877.53
2022-08-31T09:39:31.299Z,94875.47
2022-08-31T09:42:14.714Z,94871.28
2022-08-31T09:44:43.349Z,94876.69
2022-08-31T09:47:43.124Z,94873.16
2022-08-31T09:50:11.226Z,94878.97
2022-08-31T09:52:58.873Z,94848.75
2022-08-31T09:55:28.067Z,94870.72
2022-08-31T09:58:01.331Z,94881.78
2022-08-31T10:00:34.535Z,94886.72
2022-08-31T10:03:19.117Z,94849.09
2022-08-31T10:05:48.756Z,94869.28
2022-08-31T10:08:57.987Z,94859.66
2022-08-31T10:11:30.112Z,94874.31
2022-08-31T10:14:06.317Z,94885.78
2022-08-31T10:16:38.564Z,94865.75
2022-08-31T10:19:09.999Z,94880.16
2022-08-31T10:21:53.985Z,94889.50
2022-08-31T10:24:56.029Z,94881.25
2022-08-31T10:27:33.136Z,94873.06
2022-08-31T10:30:28.027Z,94885.22
2022-08-31T10:33:01.371Z,94889.94
2022-08-31T10:35:55.155Z,94879.03
2022-08-31T10:38:34.943Z,94882.00
2022-08-31T10:41:16.868Z,94879.88
2022-08-31T10:44:18.038Z,94883.84
2022-08-31T10:46:45.792Z,94898.16
2022-08-31T10:49:12.751Z,94891.94
2022-08-31T10:51:56.614Z,94894.66
2022-08-31T10:55:05.504Z,94900.63
2022-08-31T10:58:11.898Z,94887.66
2022-08-31T11:00:55.308Z,94914.91
2022-08-31T11:03:32.043Z,94924.97
2022-08-31T11:06:06.231Z,94879.16
2022-08-31T11:08:57.600Z,94900.38
2022-08-31T11:11:42.532Z,94932.66
2022-08-31T11:14:22.433Z,94921.06
2022-08-31T11:17:12.106Z,94952.41
2022-08-31T11:19:54.564Z,94929.06
2022-08-31T11:22:45.163Z,94922.63
2022-08-31T11:25:53.945Z,94928.56
2022-08-31T11:28:34.157Z,94944.75
2022-08-31T11:31:24.282Z,94926.59
2022-08-31T11:34:17.444Z,94951.38
2022-08-31T11:36:57.431Z,94958.63
2022-08-31T11:39:31.150Z,94949.28
2022-08-31T11:41:59.169Z,94958.09
2022-08-31T11:44:29.865Z,94948.00
2022-08-31T11:47:05.907Z,94961.22
2022-08-31T11:49:40.472Z,94954.09
2022-08-31T11:52:14.630Z,94957.81
2022-08-31T11:54:46.737Z,94939.00
2022-08-31T11:57:18.237Z,94937.94
2022-08-31T11:59:46.994Z,94942.84
2022-08-31T12:02:19.596Z,94947.63
2022-08-31T12:04:47.498Z,94943.22
2022-08-31T12:07:19.000Z,94930.72
2022-08-31T12:09:52.154Z,94929.47
2022-08-31T12:12:48.459Z,94925.47
2022-08-31T12:15:34.070Z,94937.66
2022-08-31T12:18:30.863Z,94907.75
2022-08-31T12:21:31.386Z,94932.66
2022-08-31T12:24:08.613Z,94921.31
2022-08-31T12:26:46.860Z,94928.63
2022-08-31T12:29:28.034Z,94906.75
2022-08-31T12:32:10.717Z,94927.41
2022-08-31T12:34:44.599Z,94934.69
2022-08-31T12:37:24.820Z,94945.97
2022-08-31T12:40:13.515Z,94931.66
2022-08-31T12:42:55.197Z,94936.56
2022-08-31T12:45:37.888Z,94936.25
2022-08-31T12:48:35.750Z,94956.13
2022-08-31T12:51:24.699Z,94952.22
2022-08-31T12:54:08.632Z,94945.66
2022-08-31T12:56:51.959Z,94942.56
2022-08-31T13:00:01.265Z,94948.06
2022-08-31T13:02:33.324Z,94951.78
2022-08-31T13:05:03.018Z,94960.81
2022-08-31T13:07:35.425Z,94956.06
2022-08-31T13:10:06.901Z,94950.66
2022-08-31T13:12:33.757Z,94958.69
2022-08-31T13:15:00.650Z,94961.09
2022-08-31T13:17:34.027Z,94950.03
2022-08-31T13:20:03.058Z,94947.09
2022-08-31T13:22:29.960Z,94931.00
2022-08-31T13:25:13.171Z,94937.31
2022-08-31T13:27:50.514Z,94970.75
2022-08-31T13:30:22.442Z,94939.75
2022-08-31T13:32:55.035Z,94970.13
2022-08-31T13:35:31.748Z,94938.63
2022-08-31T13:38:07.965Z,94974.84
2022-08-31T13:40:39.508Z,94983.06
2022-08-31T13:43:09.312Z,94954.38
2022-08-31T13:45:39.379Z,94956.38
2022-08-31T13:48:11.482Z,94963.00
2022-08-31T13:50:53.819Z,94954.88
2022-08-31T13:53:39.638Z,94956.47
2022-08-31T13:56:47.450Z,94920.38
2022-08-31T13:59:23.785Z,94953.25
2022-08-31T14:01:59.116Z,94934.00
2022-08-31T14:04:39.174Z,94952.78
2022-08-31T14:07:06.187Z,94959.13
2022-08-31T14:09:33.185Z,94944.50
2022-08-31T14:12:03.700Z,94940.59
2022-08-31T14:14:41.456Z,94938.75
2022-08-31T14:17:16.236Z,94961.28
2022-08-31T14:19:45.219Z,94944.75
2022-08-31T14:22:26.648Z,94953.19
2022-08-31T14:24:56.855Z,94978.09
2022-08-31T14:27:24.309Z,94957.22
2022-08-31T14:29:52.317Z,94969.97
2022-08-31T14:32:22.272Z,94961.28
2022-08-31T14:34:51.078Z,94960.09
2022-08-31T14:37:23.216Z,94956.13
2022-08-31T14:40:05.522Z,94946.84
2022-08-31T14:42:37.521Z,94934.47
2022-08-31T14:45:18.583Z,94952.41
2022-08-31T14:47:52.260Z,94938.59
2022-08-31T14:50:23.473Z,94960.09
2022-08-31T14:52:55.716Z,94954.41
2022-08-31T14:55:25.832Z,94948.81
2022-08-31T14:57:59.379Z,94958.50
2022-08-31T15:00:31.691Z,94936.63
2022-08-31T15:02:59.784Z,94943.81
2022-08-31T15:05:26.778Z,94935.84
2022-08-31T15:07:54.972Z,94942.44
2022-08-31T15:10:25.919Z,94942.44
2022-08-31T15:12:53.787Z,94909.31
2022-08-31T15:15:21.169Z,94958.31
2022-08-31T15:17:51.669Z,94943.72
2022-08-31T15:20:22.774Z,94959.16
2022-08-31T15:22:50.091Z,94982.25
2022-08-31T15:25:19.025Z,94987.22
2022-08-31T15:27:46.642Z,94919.25
2022-08-31T15:30:17.451Z,94962.13
2022-08-31T15:32:46.833Z,94957.63
2022-08-31T15:35:18.387Z,94956.19
2022-08-31T15:37:53.127Z,94948.72
2022-08-31T15:40:23.637Z,94970.38
2022-08-31T15:42:51.005Z,94965.72
2022-08-31T15:45:18.098Z,94966.72
2022-08-31T15:48:03.530Z,94967.97
2022-08-31T15:50:32.031Z,94955.78
2022-08-31T15:53:09.611Z,94958.41
2022-08-31T15:55:41.067Z,94956.59
2022-08-31T15:58:09.520Z,94946.81
2022-08-31T16:00:37.417Z,94920.88
2022-08-31T16:03:06.184Z,94946.16
2022-08-31T16:05:39.524Z,94914.66
2022-08-31T16:08:10.376Z,94924.41
2022-08-31T16:10:41.922Z,94928.06
2022-08-31T16:13:09.783Z,94919.06
2022-08-31T16:15:38.156Z,94947.13
2022-08-31T16:18:06.062Z,94963.34
2022-08-31T16:20:34.681Z,94947.81
2022-08-31T16:23:01.651Z,94960.69
2022-08-31T16:25:30.485Z,94947.69
2022-08-31T16:28:14.712Z,94946.13
2022-08-31T16:30:43.787Z,94951.28
2022-08-31T16:33:12.097Z,94933.38
2022-08-31T16:35:39.634Z,94936.41
2022-08-31T16:38:07.240Z,94935.19
2022-08-31T16:40:35.554Z,94913.59
2022-08-31T16:43:03.331Z,94934.28
2022-08-31T16:45:30.481Z,94926.09
2022-08-31T16:48:15.959Z,94919.13
2022-08-31T16:50:47.657Z,94912.22
2022-08-31T16:53:18.000Z,94910.16
2022-08-31T16:55:47.888Z,94912.41
2022-08-31T16:58:25.055Z,94940.50
2022-08-31T17:01:03.745Z,94945.56
2022-08-31T17:03:30.591Z,94946.41
2022-08-31T17:05:57.742Z,94934.19
2022-08-31T17:08:24.549Z,94947.78
2022-08-31T17:10:51.536Z,94954.19
2022-08-31T17:13:18.576Z,94958.19
2022-08-31T17:15:45.422Z,94893.56
2022-08-31T17:18:12.543Z,94961.38
2022-08-31T17:20:40.950Z,94972.63
2022-08-31T17:23:10.291Z,94984.81
2022-08-31T17:25:37.169Z,94955.41
2022-08-31T17:28:17.963Z,94920.59
2022-08-31T17:30:44.876Z,94974.31
2022-08-31T17:33:12.652Z,94964.22
2022-08-31T17:35:42.206Z,94971.31
2022-08-31T17:38:09.003Z,94962.66
2022-08-31T17:40:35.846Z,94994.75
2022-08-31T17:43:02.803Z,94965.50
2022-08-31T17:45:29.638Z,94966.28
2022-08-31T17:47:56.645Z,94970.59
2022-08-31T17:50:23.622Z,94935.94
2022-08-31T17:52:50.761Z,94969.44
2022-08-31T17:55:17.646Z,94966.03
2022-08-31T17:57:45.364Z,94971.63
2022-08-31T18:00:14.819Z,94970.72
2022-08-31T18:02:41.774Z,94990.16
2022-08-31T18:05:11.720Z,94950.38
2022-08-31T18:07:41.006Z,94970.59
2022-08-31T18:10:09.445Z,94963.34
2022-08-31T18:12:41.399Z,94914.53
2022-08-31T18:15:13.895Z,94982.75
2022-08-31T18:17:40.808Z,94983.63
2022-08-31T18:20:08.695Z,94970.66
2022-08-31T18:22:35.646Z,94991.66
2022-08-31T18:25:02.561Z,94995.41
2022-08-31T18:27:29.420Z,94979.88
2022-08-31T18:29:58.561Z,94975.25
2022-08-31T18:32:27.610Z,94992.19
2022-08-31T18:34:57.470Z,94988.53
2022-08-31T18:37:25.720Z,95006.47
2022-08-31T18:40:11.554Z,95000.84
2022-08-31T18:42:57.461Z,94991.09
2022-08-31T18:45:25.784Z,95001.81
2022-08-31T18:48:23.413Z,94991.53
2022-08-31T18:50:46.931Z,94988.06
2022-08-31T18:53:27.776Z,95006.97
2022-08-31T18:56:10.352Z,94994.28
2022-08-31T18:58:38.423Z,95010.47
2022-08-31T19:01:07.526Z,95002.59
2022-08-31T19:03:34.491Z,94993.56
2022-08-31T19:06:01.861Z,95013.88
2022-08-31T19:08:29.307Z,95014.41
2022-08-31T19:10:58.265Z,95005.91
2022-08-31T19:13:29.907Z,94994.81
2022-08-31T19:16:01.496Z,94991.19
2022-08-31T19:18:30.551Z,95004.44
2022-08-31T19:20:57.592Z,95028.47
2022-08-31T19:23:24.901Z,95018.97
2022-08-31T19:25:52.927Z,94984.56
2022-08-31T19:28:19.783Z,94998.03
2022-08-31T19:30:50.341Z,94995.44
2022-08-31T19:33:18.902Z,94996.13
2022-08-31T19:35:45.760Z,95008.81
2022-08-31T19:38:14.414Z,94999.75
2022-08-31T19:40:41.373Z,94975.44
2022-08-31T19:45:55.207Z,94992.72
2022-08-31T19:48:23.816Z,94982.00
2022-08-31T19:50:51.923Z,94974.25
2022-08-31T19:53:21.953Z,94973.22
2022-08-31T19:55:53.632Z,94977.00
2022-08-31T19:58:26.539Z,95008.56
2022-08-31T20:01:00.791Z,94980.22
2022-08-31T20:03:28.673Z,94996.31
2022-08-31T20:05:56.303Z,95003.16
2022-08-31T20:08:23.076Z,94978.81
2022-08-31T20:10:49.809Z,94976.63
2022-08-31T20:13:21.668Z,94982.47
2022-08-31T20:15:48.566Z,94997.22
2022-08-31T20:18:15.426Z,94984.28
2022-08-31T20:20:46.026Z,94975.44
2022-08-31T20:23:16.879Z,94981.97
2022-08-31T20:25:46.849Z,94988.06
2022-08-31T20:28:16.201Z,94989.56
2022-08-31T20:30:44.173Z,94987.34
2022-08-31T20:33:11.844Z,94939.59
2022-08-31T20:35:47.778Z,95021.38
2022-08-31T20:38:17.103Z,95008.81
2022-08-31T20:40:47.173Z,95013.78
2022-08-31T20:43:15.062Z,94983.00
2022-08-31T20:45:42.371Z,95014.22
2022-08-31T20:48:29.003Z,95001.91
2022-08-31T20:50:56.810Z,94971.19
2022-08-31T20:53:42.596Z,94990.34
2022-08-31T20:56:17.710Z,95010.63
2022-08-31T20:58:46.134Z,95012.75
2022-08-31T21:01:14.353Z,94989.59
2022-08-31T21:03:41.718Z,94975.91
2022-08-31T21:06:11.586Z,94991.75
2022-08-31T21:08:42.532Z,94979.63
2022-08-31T21:11:17.662Z,95006.81
2022-08-31T21:13:46.577Z,94978.13
2022-08-31T21:16:14.656Z,94958.63
2022-08-31T21:18:41.577Z,94966.88
2022-08-31T21:21:17.704Z,94966.81
2022-08-31T21:23:46.282Z,95007.78
2022-08-31T21:26:26.073Z,94966.59
2022-08-31T21:28:55.182Z,95007.91
2022-08-31T21:31:28.736Z,94969.94
2022-08-31T21:34:02.217Z,94916.44
2022-08-31T21:36:32.811Z,94941.78
2022-08-31T21:39:00.718Z,94924.00
2022-08-31T21:41:29.436Z,94954.66
2022-08-31T21:43:59.490Z,94943.06
2022-08-31T21:46:28.502Z,94988.78
2022-08-31T21:48:58.415Z,94980.47
2022-08-31T21:51:28.390Z,94975.59
2022-08-31T21:54:01.458Z,94945.16
2022-08-31T21:56:31.426Z,94970.09
2022-08-31T21:58:59.582Z,94953.63
2022-08-31T22:01:27.823Z,94960.34
2022-08-31T22:03:59.588Z,94968.81
2022-08-31T22:06:31.080Z,94958.38
2022-08-31T22:09:01.565Z,94949.00
2022-08-31T22:11:32.018Z,94989.59
2022-08-31T22:13:59.711Z,94945.47
2022-08-31T22:16:27.754Z,94977.75
2022-08-31T22:19:02.183Z,94967.69
2022-08-31T22:21:34.635Z,94971.75
2022-08-31T22:24:05.049Z,94994.41
2022-08-31T22:26:37.335Z,94950.84
2022-08-31T22:29:06.492Z,94953.16
2022-08-31T22:31:37.209Z,94967.97
2022-08-31T22:34:06.833Z,94980.94
2022-08-31T22:36:34.548Z,94974.97
2022-08-31T22:39:05.537Z,94939.63
2022-08-31T22:41:33.647Z,94985.13
2022-08-31T22:44:01.383Z,94946.84
2022-08-31T22:46:28.570Z,94959.00
2022-08-31T22:48:55.806Z,94970.75
2022-08-31T22:51:22.732Z,94936.84
2022-08-31T22:53:51.674Z,94939.22
2022-08-31T22:56:25.664Z,94946.25
2022-08-31T22:58:55.182Z,94959.63
2022-08-31T23:01:29.195Z,94957.59
2022-08-31T23:03:59.069Z,94943.91
2022-08-31T23:06:26.687Z,94962.91
2022-08-31T23:08:55.499Z,94961.84
2022-08-31T23:11:24.402Z,94987.16
2022-08-31T23:13:55.582Z,94939.72
2022-08-31T23:16:30.151Z,94925.09
2022-08-31T23:19:21.828Z,94960.22
2022-08-31T23:21:52.970Z,94952.81
2022-08-31T23:24:29.230Z,94952.63
2022-08-31T23:27:01.673Z,94904.81
2022-08-31T23:29:58.084Z,94925.16
2022-08-31T23:32:27.832Z,94944.69
2022-08-31T23:34:58.488Z,94962.72
2022-08-31T23:37:26.318Z,94898.31
2022-08-31T23:39:54.608Z,94960.28
2022-08-31T23:42:23.423Z,94890.06
2022-08-31T23:44:50.677Z,94933.19
2022-08-31T23:47:21.642Z,94936.09
2022-08-31T23:49:51.427Z,94901.31
2022-08-31T23:52:21.361Z,94947.44
2022-08-31T23:54:50.718Z,94941.50
2022-08-31T23:57:32.791Z,94942.28
